createdAt,value
2018-10-03T00:00:06.549Z,24.97
2018-10-03T00:02:35.525Z,24.97
2018-10-03T00:05:04.620Z,25.23
2018-10-03T00:07:33.783Z,23.83
2018-10-03T00:10:02.763Z,22.97
2018-10-03T00:12:31.928Z,25.63
2018-10-03T00:15:01.166Z,26.07
2018-10-03T00:17:30.221Z,26.57
2018-10-03T00:19:59.336Z,24.80
2018-10-03T00:22:28.440Z,24.70
2018-10-03T00:24:57.569Z,25.67
2018-10-03T00:27:26.555Z,26.13
2018-10-03T00:29:55.914Z,22.80
2018-10-03T00:32:25.021Z,25.67
2018-10-03T00:34:54.080Z,20.80
2018-10-03T00:37:23.177Z,20.00
2018-10-03T00:39:52.349Z,19.83
2018-10-03T00:42:21.393Z,22.07
2018-10-03T00:44:50.553Z,25.87
2018-10-03T00:47:19.649Z,20.73
2018-10-03T00:49:48.691Z,21.87
2018-10-03T00:52:17.890Z,23.67
2018-10-03T00:54:46.720Z,22.70
2018-10-03T00:57:15.690Z,24.87
2018-10-03T00:59:45.005Z,27.37
2018-10-03T01:02:14.189Z,24.80
2018-10-03T01:04:43.256Z,23.30
2018-10-03T01:07:12.477Z,20.07
2018-10-03T01:09:41.537Z,20.93
2018-10-03T01:12:10.367Z,21.20
2018-10-03T01:14:39.367Z,24.23
2018-10-03T01:17:08.521Z,22.70
2018-10-03T01:19:37.510Z,21.43
2018-10-03T01:22:06.960Z,18.93
2018-10-03T01:24:35.933Z,21.77
2018-10-03T01:27:05.042Z,18.97
2018-10-03T01:29:34.395Z,16.03
2018-10-03T01:32:03.384Z,16.03
2018-10-03T01:34:32.507Z,18.43
2018-10-03T01:37:01.901Z,18.43
2018-10-03T01:39:31.015Z,14.77
2018-10-03T01:41:59.856Z,14.63
2018-10-03T01:44:29.071Z,15.70
2018-10-03T01:46:58.092Z,16.33
2018-10-03T01:49:26.992Z,18.73
2018-10-03T01:51:55.919Z,20.63
2018-10-03T01:54:25.043Z,21.80
2018-10-03T01:56:54.227Z,25.73
2018-10-03T01:59:23.585Z,23.00
2018-10-03T02:01:52.686Z,21.43
2018-10-03T02:04:21.576Z,24.40
2018-10-03T02:06:50.529Z,23.63
2018-10-03T02:09:19.541Z,24.73
2018-10-03T02:11:48.427Z,20.80
2018-10-03T02:14:17.694Z,20.13
2018-10-03T02:16:46.702Z,17.67
2018-10-03T02:19:15.852Z,20.97
2018-10-03T02:21:45.020Z,18.17
2018-10-03T02:24:14.052Z,17.37
2018-10-03T02:26:43.124Z,18.57
2018-10-03T02:29:12.118Z,21.90
2018-10-03T02:31:41.137Z,24.67
2018-10-03T02:34:10.136Z,23.33
2018-10-03T02:36:39.485Z,24.10
2018-10-03T02:39:09.437Z,22.87
2018-10-03T02:41:38.433Z,26.97
2018-10-03T02:44:08.044Z,26.70
2018-10-03T02:46:37.044Z,25.80
2018-10-03T02:49:06.215Z,23.70
2018-10-03T02:51:35.515Z,23.57
2018-10-03T02:54:04.489Z,24.97
2018-10-03T02:56:33.552Z,25.87
2018-10-03T02:59:02.985Z,22.73
2018-10-03T03:01:32.052Z,23.43
2018-10-03T03:04:01.015Z,28.67
2018-10-03T03:06:29.947Z,23.27
2018-10-03T03:08:59.092Z,25.30
2018-10-03T03:11:28.176Z,28.63
2018-10-03T03:13:57.409Z,28.37
2018-10-03T03:16:26.534Z,28.63
2018-10-03T03:18:55.557Z,25.40
2018-10-03T03:21:24.936Z,23.97
2018-10-03T03:23:54.056Z,22.20
2018-10-03T03:26:23.173Z,22.63
2018-10-03T03:35:37.408Z,27.00
2018-10-03T03:38:06.429Z,29.37
2018-10-03T03:40:35.461Z,29.23
2018-10-03T03:43:05.067Z,26.73
2018-10-03T03:45:33.984Z,30.63
2018-10-03T03:48:02.814Z,32.17
2018-10-03T03:50:31.826Z,37.93
2018-10-03T03:53:00.977Z,35.33
2018-10-03T03:55:30.049Z,33.63
2018-10-03T03:57:59.298Z,32.80
2018-10-03T04:00:28.356Z,32.90
2018-10-03T04:02:57.261Z,33.17
2018-10-03T04:05:26.305Z,33.23
2018-10-03T04:07:55.405Z,36.53
2018-10-03T04:10:24.309Z,33.93
2018-10-03T04:12:53.255Z,33.87
2018-10-03T04:15:22.251Z,34.97
2018-10-03T04:17:51.271Z,29.67
2018-10-03T04:20:20.641Z,32.53
2018-10-03T04:22:49.570Z,34.73
2018-10-03T04:25:18.635Z,31.50
2018-10-03T04:27:47.912Z,31.27
2018-10-03T04:31:19.455Z,33.03
2018-10-03T04:33:48.545Z,33.50
2018-10-03T04:36:17.584Z,30.63
2018-10-03T04:38:46.511Z,31.37
2018-10-03T04:41:15.857Z,32.00
2018-10-03T04:43:44.744Z,26.70
2018-10-03T04:46:13.657Z,29.03
2018-10-03T04:48:42.562Z,31.63
2018-10-03T04:51:11.454Z,28.03
2018-10-03T04:53:40.320Z,27.17
2018-10-03T04:56:09.556Z,30.33
2018-10-03T04:58:38.918Z,27.63
2018-10-03T05:01:08.137Z,25.17
2018-10-03T05:03:37.678Z,29.93
2018-10-03T05:06:06.989Z,27.63
2018-10-03T05:08:36.077Z,26.43
2018-10-03T05:11:05.105Z,31.97
2018-10-03T05:13:34.049Z,25.93
2018-10-03T05:16:02.942Z,26.63
2018-10-03T05:18:32.225Z,23.57
2018-10-03T05:21:01.305Z,20.90
2018-10-03T05:23:30.217Z,24.83
2018-10-03T05:25:59.283Z,27.67
2018-10-03T05:28:28.262Z,23.83
2018-10-03T05:30:57.427Z,29.80
2018-10-03T05:33:27.064Z,25.40
2018-10-03T05:35:55.972Z,25.30
2018-10-03T05:38:25.133Z,24.43
2018-10-03T05:40:54.468Z,27.47
2018-10-03T05:43:23.428Z,26.47
2018-10-03T05:45:52.553Z,23.87
2018-10-03T05:48:22.033Z,27.67
2018-10-03T05:50:50.984Z,31.93
2018-10-03T05:53:19.968Z,26.73
2018-10-03T05:55:49.227Z,27.90
2018-10-03T05:58:18.072Z,24.53
2018-10-03T06:00:47.087Z,29.83
2018-10-03T06:03:15.966Z,29.33
2018-10-03T06:05:44.886Z,24.30
2018-10-03T06:08:13.878Z,26.40
2018-10-03T06:10:42.976Z,29.20
2018-10-03T06:13:11.904Z,30.27
2018-10-03T06:15:40.869Z,31.63
2018-10-03T06:18:10.173Z,29.87
2018-10-03T06:20:39.213Z,31.60
2018-10-03T06:23:08.082Z,27.43
2018-10-03T06:25:37.084Z,33.57
2018-10-03T06:28:06.109Z,30.57
2018-10-03T06:30:35.137Z,33.63
2018-10-03T06:33:04.585Z,28.70
2018-10-03T06:35:33.537Z,28.33
2018-10-03T06:38:02.433Z,27.60
2018-10-03T06:40:32.720Z,30.83
2018-10-03T06:43:01.686Z,30.23
2018-10-03T06:45:30.809Z,25.63
2018-10-03T06:47:59.955Z,29.73
2018-10-03T06:50:28.943Z,28.37
2018-10-03T06:52:57.879Z,26.77
2018-10-03T06:55:26.844Z,24.73
2018-10-03T06:57:55.702Z,27.03
2018-10-03T07:00:24.665Z,26.60
2018-10-03T07:02:53.609Z,25.30
2018-10-03T07:05:22.497Z,31.17
2018-10-03T07:07:51.458Z,26.60
2018-10-03T07:10:20.568Z,25.67
2018-10-03T07:12:49.517Z,26.53
2018-10-03T07:15:18.514Z,23.73
2018-10-03T07:17:47.851Z,29.30
2018-10-03T07:20:16.724Z,25.33
2018-10-03T07:22:45.552Z,26.30
2018-10-03T07:25:14.480Z,23.03
2018-10-03T07:27:43.468Z,21.07
2018-10-03T07:31:15.192Z,21.27
2018-10-03T07:33:44.045Z,26.03
2018-10-03T07:36:13.012Z,22.40
2018-10-03T07:38:42.165Z,25.87
2018-10-03T07:41:11.109Z,23.53
2018-10-03T07:43:40.089Z,22.43
2018-10-03T07:46:09.204Z,24.77
2018-10-03T07:48:38.252Z,25.10
2018-10-03T07:51:07.112Z,23.47
2018-10-03T07:53:36.190Z,22.23
2018-10-03T07:56:05.131Z,22.80
2018-10-03T07:58:34.101Z,25.40
2018-10-03T08:01:03.293Z,20.90
2018-10-03T08:03:32.298Z,23.33
2018-10-03T08:06:01.357Z,25.43
2018-10-03T08:08:30.449Z,28.10
2018-10-03T08:10:59.362Z,27.13
2018-10-03T08:13:28.231Z,23.67
2018-10-03T08:15:57.212Z,23.10
2018-10-03T08:18:26.160Z,22.23
2018-10-03T08:20:55.017Z,24.87
2018-10-03T08:23:24.014Z,21.83
2018-10-03T08:25:53.027Z,21.83
2018-10-03T08:28:22.005Z,19.70
2018-10-03T08:30:50.859Z,24.77
2018-10-03T08:33:19.767Z,43.23
2018-10-03T08:35:48.675Z,24.07
2018-10-03T08:38:18.158Z,32.10
2018-10-03T08:40:47.125Z,21.03
2018-10-03T08:43:15.980Z,22.33
2018-10-03T08:45:44.926Z,23.80
2018-10-03T08:48:13.896Z,22.33
2018-10-03T08:50:42.753Z,26.37
2018-10-03T08:53:12.154Z,20.10
2018-10-03T08:55:41.416Z,20.20
2018-10-03T08:58:10.359Z,20.73
2018-10-03T09:00:39.417Z,18.53
2018-10-03T09:03:08.333Z,20.80
2018-10-03T09:05:37.358Z,21.00
2018-10-03T09:08:14.235Z,19.23
2018-10-03T09:10:44.646Z,21.93
2018-10-03T09:13:14.022Z,19.10
2018-10-03T09:15:43.016Z,18.80
2018-10-03T09:18:12.033Z,20.87
2018-10-03T09:20:41.368Z,21.50
2018-10-03T09:23:10.233Z,22.73
2018-10-03T09:25:39.250Z,21.73
2018-10-03T09:28:08.455Z,27.77
2018-10-03T09:30:37.410Z,20.57
2018-10-03T09:33:06.233Z,18.20
2018-10-03T09:35:35.576Z,17.97
2018-10-03T09:38:04.501Z,20.73
2018-10-03T09:40:33.427Z,18.47
2018-10-03T09:43:02.604Z,18.10
2018-10-03T09:45:31.426Z,19.23
2018-10-03T09:48:00.337Z,18.05
2018-10-03T09:50:29.309Z,18.83
2018-10-03T09:52:58.254Z,15.50
2018-10-03T09:55:27.102Z,17.30
2018-10-03T09:59:25.405Z,20.72
2018-10-03T10:01:54.440Z,16.13
2018-10-03T10:04:23.330Z,16.02
2018-10-03T10:06:52.334Z,18.27
2018-10-03T10:09:21.185Z,19.17
2018-10-03T10:11:50.155Z,18.92
2018-10-03T10:14:19.179Z,15.10
2018-10-03T10:16:48.155Z,19.15
2018-10-03T10:19:17.184Z,17.20
2018-10-03T10:21:46.362Z,14.33
2018-10-03T10:24:15.350Z,17.40
2018-10-03T10:26:44.245Z,17.17
2018-10-03T10:29:13.508Z,16.57
2018-10-03T10:31:42.381Z,17.65
2018-10-03T10:34:11.354Z,15.30
2018-10-03T10:36:40.396Z,18.82
2018-10-03T10:39:11.040Z,16.37
2018-10-03T10:41:40.136Z,16.40
2018-10-03T10:44:09.687Z,16.90
2018-10-03T10:46:38.902Z,16.20
2018-10-03T10:49:08.054Z,17.57
2018-10-03T10:51:37.384Z,14.53
2018-10-03T10:54:06.344Z,16.30
2018-10-03T10:56:35.408Z,15.48
2018-10-03T10:59:04.626Z,17.52
2018-10-03T11:01:33.681Z,14.07
2018-10-03T11:04:03.124Z,14.23
2018-10-03T11:06:32.774Z,13.53
2018-10-03T11:09:01.748Z,14.23
2018-10-03T11:11:30.767Z,18.05
2018-10-03T11:14:00.018Z,13.58
2018-10-03T11:16:29.165Z,13.53
2018-10-03T11:18:58.150Z,14.00
2018-10-03T11:21:27.386Z,12.80
2018-10-03T11:23:56.372Z,13.83
2018-10-03T11:26:25.424Z,14.78
2018-10-03T11:28:54.775Z,14.15
2018-10-03T11:31:23.730Z,16.05
2018-10-03T11:33:52.681Z,13.18
2018-10-03T11:36:22.059Z,15.13
2018-10-03T11:38:51.083Z,14.13
2018-10-03T11:41:20.177Z,16.00
2018-10-03T11:43:49.599Z,15.72
2018-10-03T11:46:18.583Z,11.12
2018-10-03T11:48:47.723Z,12.63
2018-10-03T11:51:17.059Z,14.55
2018-10-03T11:53:45.967Z,14.90
2018-10-03T11:56:14.898Z,13.15
2018-10-03T11:58:44.133Z,12.68
2018-10-03T12:01:13.251Z,13.88
2018-10-03T12:03:42.290Z,11.53
2018-10-03T12:06:11.280Z,11.97
2018-10-03T12:08:40.312Z,17.23
2018-10-03T12:11:09.889Z,14.47
2018-10-03T12:13:40.200Z,13.72
2018-10-03T12:16:09.427Z,11.43
2018-10-03T12:18:58.310Z,11.95
2018-10-03T12:21:27.596Z,16.90
2018-10-03T12:23:56.566Z,15.10
2018-10-03T12:26:27.577Z,17.07
2018-10-03T12:29:00.581Z,12.73
2018-10-03T12:31:34.529Z,14.98
2018-10-03T12:34:29.776Z,17.95
2018-10-03T12:37:00.290Z,21.82
2018-10-03T12:39:29.283Z,14.60
2018-10-03T12:41:58.462Z,14.63
2018-10-03T12:44:27.784Z,13.93
2018-10-03T12:46:56.754Z,13.43
2018-10-03T12:49:25.846Z,12.73
2018-10-03T12:51:55.115Z,11.70
2018-10-03T12:54:24.207Z,12.47
2018-10-03T12:56:53.275Z,14.28
2018-10-03T12:59:22.705Z,11.57
2018-10-03T13:01:53.605Z,14.30
2018-10-03T13:04:22.769Z,17.55
2018-10-03T13:06:51.742Z,12.33
2018-10-03T13:09:20.798Z,16.15
2018-10-03T13:11:51.086Z,17.62
2018-10-03T13:14:20.253Z,16.80
2018-10-03T13:16:49.215Z,14.13
2018-10-03T13:19:18.829Z,15.78
2018-10-03T13:21:48.007Z,12.50
2018-10-03T13:24:18.467Z,15.78
2018-10-03T13:26:47.518Z,14.65
2018-10-03T13:29:16.629Z,12.65
2018-10-03T13:31:45.805Z,12.33
2018-10-03T13:34:15.128Z,14.58
2018-10-03T13:36:44.184Z,22.25
2018-10-03T13:39:13.113Z,18.37
2018-10-03T13:41:43.025Z,14.00
2018-10-03T13:44:11.934Z,14.47
2018-10-03T13:46:40.956Z,17.17
2018-10-03T13:49:10.521Z,15.63
2018-10-03T13:51:41.738Z,15.38
2018-10-03T13:54:10.962Z,16.37
2018-10-03T13:56:39.977Z,16.48
2018-10-03T13:59:09.739Z,18.52
2018-10-03T14:01:39.364Z,19.55
2018-10-03T14:04:08.956Z,16.00
2018-10-03T14:06:37.896Z,18.23
2018-10-03T14:09:10.109Z,20.85
2018-10-03T14:11:41.453Z,14.60
2018-10-03T14:14:10.614Z,16.80
2018-10-03T14:16:39.655Z,18.02
2018-10-03T14:19:08.766Z,18.17
2018-10-03T14:21:37.640Z,16.25
2018-10-03T14:24:06.676Z,18.52
2018-10-03T14:26:35.686Z,17.23
2018-10-03T14:29:04.685Z,16.40
2018-10-03T14:31:33.628Z,18.77
2018-10-03T14:34:02.625Z,18.92
2018-10-03T14:36:31.443Z,20.77
2018-10-03T14:39:00.709Z,20.17
2018-10-03T14:41:29.586Z,21.40
2018-10-03T14:43:58.480Z,16.12
2018-10-03T14:46:27.852Z,19.48
2018-10-03T14:48:56.683Z,22.35
2018-10-03T14:51:25.734Z,25.10
2018-10-03T14:53:54.690Z,17.62
2018-10-03T14:56:23.613Z,26.48
2018-10-03T14:58:52.590Z,22.27
2018-10-03T15:01:21.974Z,24.80
2018-10-03T15:03:50.966Z,27.70
2018-10-03T15:06:19.968Z,23.90
2018-10-03T15:08:49.257Z,28.40
2018-10-03T15:11:18.053Z,33.30
2018-10-03T15:13:47.614Z,26.45
2018-10-03T15:16:17.526Z,25.88
2018-10-03T15:18:46.528Z,35.13
2018-10-03T15:21:15.865Z,22.67
2018-10-03T15:23:45.809Z,28.10
2018-10-03T15:26:14.794Z,29.07
2018-10-03T15:28:43.814Z,28.62
2018-10-03T15:31:13.145Z,36.38
2018-10-03T15:33:42.398Z,29.00
2018-10-03T15:36:11.594Z,33.28
2018-10-03T15:38:41.061Z,26.27
2018-10-03T15:41:10.055Z,33.00
2018-10-03T15:43:39.104Z,30.77
2018-10-03T15:46:08.705Z,27.30
2018-10-03T15:48:37.871Z,31.42
2018-10-03T15:51:07.167Z,24.43
2018-10-03T15:53:36.363Z,33.83
2018-10-03T15:56:05.468Z,31.13
2018-10-03T15:58:34.552Z,32.25
2018-10-03T16:01:04.089Z,34.87
2018-10-03T16:03:33.103Z,32.17
2018-10-03T16:06:02.128Z,37.77
2018-10-03T16:08:31.188Z,37.93
2018-10-03T16:11:00.088Z,34.40
2018-10-03T16:13:29.017Z,30.57
2018-10-03T16:15:58.142Z,30.73
2018-10-03T16:18:27.232Z,33.50
2018-10-03T16:20:56.423Z,30.70
2018-10-03T16:23:25.468Z,29.40
2018-10-03T16:25:54.471Z,31.93
2018-10-03T16:28:23.399Z,44.33
2018-10-03T16:30:52.886Z,36.17
2018-10-03T16:33:21.917Z,30.33
2018-10-03T16:35:50.816Z,36.03
2018-10-03T16:38:20.081Z,31.53
2018-10-03T16:40:48.998Z,30.93
2018-10-03T16:43:17.977Z,29.47
2018-10-03T16:45:47.547Z,34.25
2018-10-03T16:48:16.449Z,36.57
2018-10-03T16:50:45.473Z,31.80
2018-10-03T16:53:14.879Z,29.57
2018-10-03T16:55:44.201Z,33.57
2018-10-03T16:58:13.358Z,27.40
2018-10-03T17:00:42.825Z,34.80
2018-10-03T17:03:11.905Z,28.50
2018-10-03T17:05:40.987Z,28.43
2018-10-03T17:08:10.161Z,29.43
2018-10-03T17:10:39.695Z,31.70
2018-10-03T17:14:39.336Z,30.90
2018-10-03T17:17:08.934Z,28.97
2018-10-03T17:19:38.841Z,29.67
2018-10-03T17:22:09.020Z,29.00
2018-10-03T17:24:38.841Z,27.93
2018-10-03T17:27:07.981Z,29.00
2018-10-03T17:29:37.335Z,30.93
2018-10-03T17:32:06.450Z,32.60
2018-10-03T17:34:35.549Z,34.00
2018-10-03T17:37:04.732Z,34.23
2018-10-03T17:39:33.844Z,41.80
2018-10-03T17:42:02.836Z,40.30
2018-10-03T17:44:31.918Z,40.73
2018-10-03T17:47:00.867Z,46.33
2018-10-03T17:49:51.595Z,38.40
2018-10-03T17:52:20.971Z,40.03
2018-10-03T17:54:50.918Z,41.43
2018-10-03T17:57:21.837Z,45.37
2018-10-03T17:59:51.628Z,42.30
2018-10-03T18:02:21.428Z,42.67
2018-10-03T18:04:56.194Z,37.03
2018-10-03T18:07:29.960Z,31.40
2018-10-03T18:10:05.097Z,28.13
2018-10-03T18:12:58.722Z,21.87
2018-10-03T18:15:34.592Z,20.63
2018-10-03T18:20:51.174Z,23.90
2018-10-03T18:23:25.086Z,18.03
2018-10-03T18:26:00.273Z,20.67
2018-10-03T18:28:35.762Z,15.57
2018-10-03T18:31:09.040Z,17.87
2018-10-03T18:33:45.363Z,15.63
2018-10-03T18:36:16.124Z,15.00
2018-10-03T18:38:45.586Z,16.13
2018-10-03T18:41:15.275Z,15.23
2018-10-03T18:43:54.475Z,18.57
2018-10-03T18:46:24.913Z,17.67
2018-10-03T18:48:59.826Z,16.80
2018-10-03T18:51:32.454Z,17.70
2018-10-03T18:54:02.496Z,14.60
2018-10-03T18:56:32.235Z,16.93
2018-10-03T18:59:01.969Z,19.13
2018-10-03T19:01:32.239Z,13.97
2018-10-03T19:04:01.261Z,14.70
2018-10-03T19:06:30.441Z,14.13
2018-10-03T19:08:59.523Z,14.53
2018-10-03T19:11:28.595Z,16.57
2018-10-03T19:13:57.916Z,14.37
2018-10-03T19:16:27.095Z,14.47
2018-10-03T19:18:56.070Z,18.33
2018-10-03T19:21:25.150Z,12.63
2018-10-03T19:23:54.835Z,14.57
2018-10-03T19:26:23.816Z,12.40
2018-10-03T19:28:53.251Z,10.93
2018-10-03T19:31:22.288Z,9.60
2018-10-03T19:33:51.154Z,10.43
2018-10-03T19:36:20.167Z,8.90
2018-10-03T19:38:49.286Z,9.17
2018-10-03T19:41:18.315Z,8.03
2018-10-03T19:43:47.597Z,7.47
2018-10-03T19:46:16.752Z,8.30
2018-10-03T19:48:45.794Z,11.17
2018-10-03T19:51:14.923Z,9.87
2018-10-03T19:53:44.418Z,9.57
2018-10-03T19:56:13.441Z,7.87
2018-10-03T19:58:42.416Z,7.70
2018-10-03T20:01:11.468Z,7.27
2018-10-03T20:03:40.504Z,7.27
2018-10-03T20:06:09.475Z,10.90
2018-10-03T20:08:38.513Z,9.97
2018-10-03T20:11:07.452Z,8.13
2018-10-03T20:13:36.566Z,11.60
2018-10-03T20:16:05.949Z,6.60
2018-10-03T20:18:34.845Z,9.43
2018-10-03T20:21:03.862Z,6.60
2018-10-03T20:23:33.028Z,8.33
2018-10-03T20:26:01.998Z,7.60
2018-10-03T20:28:31.055Z,9.00
2018-10-03T20:31:00.391Z,6.67
2018-10-03T20:33:29.454Z,8.63
2018-10-03T20:35:58.481Z,5.97
2018-10-03T20:38:27.593Z,8.47
2018-10-03T20:40:56.629Z,9.90
2018-10-03T20:43:25.654Z,6.50
2018-10-03T20:45:54.823Z,7.40
2018-10-03T20:48:23.760Z,9.60
2018-10-03T20:50:52.734Z,8.23
2018-10-03T20:53:21.897Z,10.10
2018-10-03T20:55:50.799Z,7.23
2018-10-03T20:58:19.731Z,7.50
2018-10-03T21:00:49.057Z,5.80
2018-10-03T21:03:18.350Z,6.83
2018-10-03T21:05:47.457Z,6.07
2018-10-03T21:08:16.574Z,11.57
2018-10-03T21:10:45.743Z,6.27
2018-10-03T21:13:14.681Z,10.23
2018-10-03T21:15:43.984Z,8.73
2018-10-03T21:18:12.909Z,6.63
2018-10-03T21:20:41.992Z,6.63
2018-10-03T21:23:11.461Z,5.90
2018-10-03T21:25:40.394Z,5.97
2018-10-03T21:28:10.585Z,5.93
2018-10-03T21:30:39.947Z,6.37
2018-10-03T21:33:08.962Z,5.93
2018-10-03T21:35:37.986Z,5.10
2018-10-03T21:38:07.629Z,8.87
2018-10-03T21:40:36.578Z,6.93
2018-10-03T21:43:05.732Z,7.77
2018-10-03T21:45:34.809Z,7.77
2018-10-03T21:48:03.921Z,8.30
2018-10-03T21:50:32.990Z,8.87
2018-10-03T21:53:02.378Z,8.07
2018-10-03T21:55:31.279Z,7.90
2018-10-03T21:58:00.329Z,8.40
2018-10-03T22:00:35.762Z,6.37
2018-10-03T22:03:04.967Z,7.53
2018-10-03T22:05:34.137Z,6.27
2018-10-03T22:08:03.498Z,7.57
2018-10-03T22:10:32.485Z,6.77
2018-10-03T22:13:01.614Z,6.60
2018-10-03T22:15:30.999Z,6.07
2018-10-03T22:17:59.979Z,9.20
2018-10-03T22:20:28.929Z,5.73
2018-10-03T22:22:58.286Z,6.87
2018-10-03T22:25:27.280Z,7.73
2018-10-03T22:27:56.275Z,6.37
2018-10-03T22:30:25.731Z,8.33
2018-10-03T22:32:54.919Z,6.63
2018-10-03T22:35:24.057Z,7.93
2018-10-03T22:37:53.007Z,7.13
2018-10-03T22:40:21.981Z,8.13
2018-10-03T22:42:50.995Z,7.17
2018-10-03T22:45:20.229Z,7.63
2018-10-03T22:47:49.206Z,8.50
2018-10-03T22:50:18.140Z,11.87
2018-10-03T22:52:47.589Z,7.73
2018-10-03T22:55:16.550Z,6.13
2018-10-03T22:57:45.692Z,7.33
2018-10-03T23:00:15.319Z,8.17
2018-10-03T23:02:44.544Z,4.77
2018-10-03T23:05:13.512Z,6.43
2018-10-03T23:07:42.834Z,5.87
2018-10-03T23:10:12.035Z,7.50
2018-10-03T23:12:40.973Z,7.53
2018-10-03T23:15:10.075Z,6.73
2018-10-03T23:17:39.263Z,10.63
2018-10-03T23:20:08.373Z,6.93
2018-10-03T23:22:37.529Z,8.80
2018-10-03T23:25:06.506Z,7.37
2018-10-03T23:27:35.666Z,9.20
2018-10-03T23:30:05.192Z,7.47
2018-10-03T23:32:34.194Z,4.70
2018-10-03T23:35:03.419Z,5.07
2018-10-03T23:37:32.512Z,6.10
2018-10-03T23:40:01.411Z,5.00
2018-10-03T23:42:30.601Z,6.70
2018-10-03T23:45:00.353Z,8.00
2018-10-03T23:47:29.222Z,8.90
2018-10-03T23:49:58.246Z,5.13
2018-10-03T23:52:27.342Z,4.27
2018-10-03T23:54:56.480Z,3.73
2018-10-03T23:57:25.603Z,4.20
2018-10-03T23:59:54.652Z,5.33
